createdAt,value
2019-05-25T00:00:55.433Z,0.00
2019-05-25T00:01:55.356Z,0.00
2019-05-25T00:02:55.313Z,0.00
2019-05-25T00:03:55.196Z,0.00
2019-05-25T00:04:55.119Z,0.00
2019-05-25T00:05:55.031Z,0.00
2019-05-25T00:06:54.958Z,0.00
2019-05-25T00:07:54.882Z,0.00
2019-05-25T00:08:54.793Z,0.00
2019-05-25T00:09:54.719Z,0.00
2019-05-25T00:10:54.643Z,0.00
2019-05-25T00:11:54.559Z,0.00
2019-05-25T00:12:54.482Z,0.00
2019-05-25T00:13:54.408Z,0.00
2019-05-25T00:14:54.321Z,0.00
2019-05-25T00:15:54.245Z,0.00
2019-05-25T00:16:54.169Z,0.00
2019-05-25T00:17:54.082Z,0.00
2019-05-25T00:18:54.008Z,0.00
2019-05-25T00:19:53.922Z,0.00
2019-05-25T00:20:53.849Z,0.00
2019-05-25T00:21:53.769Z,0.00
2019-05-25T00:22:53.683Z,0.00
2019-05-25T00:23:53.680Z,0.00
2019-05-25T00:24:53.533Z,0.00
2019-05-25T00:25:53.457Z,0.00
2019-05-25T00:26:53.370Z,0.00
2019-05-25T00:27:53.301Z,0.00
2019-05-25T00:28:53.223Z,0.00
2019-05-25T00:29:53.134Z,0.00
2019-05-25T00:30:53.058Z,0.00
2019-05-25T00:31:52.971Z,0.00
2019-05-25T00:32:52.895Z,0.00
2019-05-25T00:33:52.811Z,0.00
2019-05-25T00:34:52.736Z,0.00
2019-05-25T00:35:52.660Z,0.00
2019-05-25T00:36:52.572Z,0.00
2019-05-25T00:37:52.499Z,0.00
2019-05-25T00:38:52.421Z,0.00
2019-05-25T00:39:52.415Z,0.00
2019-05-25T00:40:52.260Z,0.00
2019-05-25T00:41:52.173Z,0.00
2019-05-25T00:42:52.111Z,0.00
2019-05-25T00:43:52.022Z,0.00
2019-05-25T00:44:51.940Z,0.00
2019-05-25T00:45:51.863Z,0.00
2019-05-25T00:46:51.774Z,0.00
2019-05-25T00:47:51.716Z,0.00
2019-05-25T00:48:51.622Z,0.00
2019-05-25T00:49:51.545Z,0.00
2019-05-25T00:50:51.465Z,0.00
2019-05-25T00:51:51.375Z,0.00
2019-05-25T00:52:51.311Z,0.00
2019-05-25T00:53:51.228Z,0.00
2019-05-25T00:54:51.137Z,0.00
2019-05-25T00:55:51.061Z,0.00
2019-05-25T00:56:50.989Z,0.00
2019-05-25T00:57:50.899Z,0.00
2019-05-25T00:58:50.823Z,0.00
2019-05-25T00:59:50.738Z,0.00
2019-05-25T01:00:50.665Z,0.00
2019-05-25T01:01:50.590Z,0.00
2019-05-25T01:02:50.515Z,0.00
2019-05-25T01:03:50.424Z,0.00
2019-05-25T01:04:50.340Z,0.00
2019-05-25T01:05:50.262Z,0.00
2019-05-25T01:06:50.188Z,0.00
2019-05-25T01:07:50.100Z,0.00
2019-05-25T01:08:50.029Z,0.00
2019-05-25T01:09:49.950Z,0.00
2019-05-25T01:10:49.863Z,0.00
2019-05-25T01:11:49.788Z,0.00
2019-05-25T01:12:49.700Z,0.00
2019-05-25T01:13:49.625Z,0.00
2019-05-25T01:14:49.561Z,0.00
2019-05-25T01:15:49.463Z,0.00
2019-05-25T01:16:49.402Z,0.00
2019-05-25T01:17:49.301Z,0.00
2019-05-25T01:18:49.240Z,0.00
2019-05-25T01:19:49.139Z,0.00
2019-05-25T01:20:49.066Z,0.00
2019-05-25T01:21:48.989Z,0.00
2019-05-25T01:22:48.919Z,0.00
2019-05-25T01:23:48.827Z,0.00
2019-05-25T01:24:48.741Z,0.00
2019-05-25T01:25:48.665Z,0.00
2019-05-25T01:26:48.591Z,0.00
2019-05-25T01:27:48.501Z,0.00
2019-05-25T01:28:48.439Z,0.00
2019-05-25T01:29:48.340Z,0.00
2019-05-25T01:30:48.265Z,0.00
2019-05-25T01:31:48.192Z,0.00
2019-05-25T01:32:48.105Z,0.00
2019-05-25T01:33:48.027Z,0.00
2019-05-25T01:34:47.940Z,0.00
2019-05-25T01:35:47.865Z,0.00
2019-05-25T01:36:47.791Z,0.00
2019-05-25T01:37:48.664Z,0.00
2019-05-25T01:38:47.627Z,0.00
2019-05-25T01:39:47.542Z,0.00
2019-05-25T01:40:47.467Z,0.00
2019-05-25T01:41:47.390Z,0.00
2019-05-25T01:42:47.302Z,0.00
2019-05-25T01:43:47.282Z,0.00
2019-05-25T01:44:47.141Z,0.00
2019-05-25T01:45:47.067Z,0.00
2019-05-25T01:46:46.979Z,0.00
2019-05-25T01:47:46.903Z,0.00
2019-05-25T01:48:46.828Z,0.00
2019-05-25T01:49:46.747Z,0.00
2019-05-25T01:50:46.668Z,0.00
2019-05-25T01:51:46.579Z,0.00
2019-05-25T01:52:46.504Z,0.00
2019-05-25T01:53:46.417Z,0.00
2019-05-25T01:54:58.805Z,0.00
2019-05-25T01:55:46.256Z,0.00
2019-05-25T01:56:46.181Z,0.00
2019-05-25T01:57:46.105Z,0.00
2019-05-25T01:58:46.017Z,0.00
2019-05-25T01:59:45.946Z,0.00
2019-05-25T02:00:45.855Z,0.00
2019-05-25T02:01:45.779Z,0.00
2019-05-25T02:02:45.705Z,0.00
2019-05-25T02:03:45.619Z,0.00
2019-05-25T02:04:45.544Z,0.00
2019-05-25T02:05:45.468Z,0.00
2019-05-25T02:06:45.380Z,0.00
2019-05-25T02:07:45.297Z,0.00
2019-05-25T02:08:45.219Z,0.00
2019-05-25T02:09:45.133Z,0.00
2019-05-25T02:10:45.061Z,0.00
2019-05-25T02:11:44.981Z,0.00
2019-05-25T02:12:44.895Z,0.00
2019-05-25T02:13:44.820Z,0.00
2019-05-25T02:14:44.732Z,0.00
2019-05-25T02:15:44.660Z,0.00
2019-05-25T02:16:44.570Z,0.00
2019-05-25T02:17:44.497Z,0.00
2019-05-25T02:18:45.777Z,4.00
2019-05-25T02:19:44.332Z,4.00
2019-05-25T02:20:44.259Z,4.00
2019-05-25T02:21:44.170Z,0.00
2019-05-25T02:22:44.099Z,0.00
2019-05-25T02:23:44.007Z,4.00
2019-05-25T02:24:43.932Z,4.00
2019-05-25T02:25:43.846Z,4.00
2019-05-25T02:26:43.792Z,4.00
2019-05-25T02:27:43.682Z,4.00
2019-05-25T02:28:43.607Z,8.00
2019-05-25T02:29:43.533Z,4.00
2019-05-25T02:30:43.446Z,8.00
2019-05-25T02:31:43.371Z,8.00
2019-05-25T02:32:43.290Z,8.00
2019-05-25T02:33:43.208Z,12.00
2019-05-25T02:34:43.122Z,12.00
2019-05-25T02:35:43.046Z,12.00
2019-05-25T02:36:42.958Z,12.00
2019-05-25T02:37:42.884Z,16.00
2019-05-25T02:38:42.799Z,16.00
2019-05-25T02:39:42.729Z,16.00
2019-05-25T02:40:42.635Z,20.00
2019-05-25T02:41:42.559Z,24.00
2019-05-25T02:42:42.497Z,24.00
2019-05-25T02:43:42.397Z,32.00
2019-05-25T02:44:42.321Z,32.00
2019-05-25T02:45:42.234Z,36.00
2019-05-25T02:46:42.160Z,40.00
2019-05-25T02:47:42.073Z,48.00
2019-05-25T02:48:41.998Z,48.00
2019-05-25T02:49:41.914Z,56.00
2019-05-25T02:50:41.838Z,60.00
2019-05-25T02:51:41.761Z,72.00
2019-05-25T02:52:41.673Z,76.00
2019-05-25T02:53:41.598Z,84.00
2019-05-25T02:54:41.510Z,88.00
2019-05-25T02:55:41.423Z,92.00
2019-05-25T02:56:41.348Z,104.00
2019-05-25T02:57:41.266Z,104.00
2019-05-25T02:58:41.197Z,112.00
2019-05-25T02:59:41.099Z,116.00
2019-05-25T03:00:41.032Z,124.00
2019-05-25T03:01:40.949Z,132.00
2019-05-25T03:02:40.953Z,140.00
2019-05-25T03:03:40.799Z,144.00
2019-05-25T03:04:40.699Z,156.00
2019-05-25T03:05:40.634Z,164.00
2019-05-25T03:06:40.536Z,168.00
2019-05-25T03:07:40.461Z,180.00
2019-05-25T03:08:40.374Z,184.00
2019-05-25T03:09:40.300Z,196.00
2019-05-25T03:10:40.212Z,204.00
2019-05-25T03:11:40.139Z,212.00
2019-05-25T03:12:40.051Z,220.00
2019-05-25T03:13:39.978Z,232.00
2019-05-25T03:14:39.906Z,244.00
2019-05-25T03:15:39.812Z,252.00
2019-05-25T03:16:39.725Z,264.00
2019-05-25T03:17:39.651Z,280.00
2019-05-25T03:18:39.563Z,288.00
2019-05-25T03:19:39.501Z,300.00
2019-05-25T03:20:39.404Z,312.00
2019-05-25T03:21:39.326Z,320.00
2019-05-25T03:22:39.238Z,336.00
2019-05-25T03:23:39.163Z,348.00
2019-05-25T03:24:39.077Z,364.00
2019-05-25T03:25:49.075Z,384.00
2019-05-25T03:26:38.923Z,404.00
2019-05-25T03:27:38.839Z,428.00
2019-05-25T03:28:38.754Z,448.00
2019-05-25T03:29:38.681Z,472.00
2019-05-25T03:30:38.593Z,488.00
2019-05-25T03:31:38.517Z,508.00
2019-05-25T03:32:38.429Z,524.00
2019-05-25T03:33:38.358Z,540.00
2019-05-25T03:34:38.266Z,548.00
2019-05-25T03:35:38.190Z,560.00
2019-05-25T03:36:38.104Z,572.00
2019-05-25T03:37:38.028Z,584.00
2019-05-25T03:38:37.942Z,600.00
2019-05-25T03:39:37.865Z,612.00
2019-05-25T03:40:37.779Z,628.00
2019-05-25T03:41:37.704Z,644.00
2019-05-25T03:42:37.616Z,660.00
2019-05-25T03:43:37.539Z,680.00
2019-05-25T03:44:37.454Z,708.00
2019-05-25T03:45:37.378Z,736.00
2019-05-25T03:46:37.291Z,764.00
2019-05-25T03:47:37.216Z,792.00
2019-05-25T03:48:37.141Z,824.00
2019-05-25T03:49:37.054Z,860.00
2019-05-25T03:50:36.980Z,900.00
2019-05-25T03:51:36.892Z,944.00
2019-05-25T03:52:36.814Z,996.00
2019-05-25T03:53:36.729Z,1044.00
2019-05-25T03:54:36.643Z,1092.00
2019-05-25T03:55:36.567Z,1148.00
2019-05-25T03:56:36.481Z,1212.00
2019-05-25T03:57:36.406Z,1276.00
2019-05-25T03:58:36.322Z,1348.00
2019-05-25T03:59:36.254Z,1416.00
2019-05-25T04:00:36.167Z,1488.00
2019-05-25T04:01:36.083Z,1564.00
2019-05-25T04:02:36.005Z,1636.00
2019-05-25T04:03:35.919Z,1712.00
2019-05-25T04:04:35.843Z,1796.00
2019-05-25T04:05:35.756Z,1880.00
2019-05-25T04:06:35.682Z,1960.00
2019-05-25T04:07:35.592Z,2028.00
2019-05-25T04:08:35.519Z,2080.00
2019-05-25T04:09:35.432Z,2128.00
2019-05-25T04:10:38.616Z,2176.00
2019-05-25T04:11:35.280Z,2216.00
2019-05-25T04:12:35.195Z,2224.00
2019-05-25T04:13:35.106Z,2208.00
2019-05-25T04:14:35.032Z,2200.00
2019-05-25T04:15:34.943Z,2180.00
2019-05-25T04:16:34.870Z,2160.00
2019-05-25T04:17:34.783Z,2140.00
2019-05-25T04:18:34.708Z,2124.00
2019-05-25T04:19:34.619Z,2108.00
2019-05-25T04:20:34.545Z,2092.00
2019-05-25T04:21:34.458Z,2080.00
2019-05-25T04:22:34.384Z,2072.00
2019-05-25T04:23:34.298Z,2068.00
2019-05-25T04:24:34.235Z,2076.00
2019-05-25T04:25:34.138Z,2144.00
2019-05-25T04:26:34.060Z,2168.00
2019-05-25T04:27:33.970Z,2188.00
2019-05-25T04:28:33.894Z,2292.00
2019-05-25T04:29:33.809Z,2280.00
2019-05-25T04:30:33.734Z,2212.00
2019-05-25T04:31:33.646Z,2256.00
2019-05-25T04:32:33.570Z,2348.00
2019-05-25T04:33:33.483Z,2416.00
2019-05-25T04:34:33.408Z,2568.00
2019-05-25T04:35:33.321Z,2680.00
2019-05-25T04:36:33.245Z,2792.00
2019-05-25T04:37:33.173Z,2956.00
2019-05-25T04:38:33.085Z,2800.00
2019-05-25T04:39:32.997Z,2600.00
2019-05-25T04:40:32.922Z,2792.00
2019-05-25T04:41:32.859Z,3072.00
2019-05-25T04:42:32.959Z,2816.00
2019-05-25T04:43:36.523Z,2516.00
2019-05-25T04:44:32.598Z,2460.00
2019-05-25T04:45:32.522Z,2332.00
2019-05-25T04:46:32.435Z,2116.00
2019-05-25T04:47:32.360Z,2008.00
2019-05-25T04:48:32.275Z,1980.00
2019-05-25T04:49:32.199Z,1844.00
2019-05-25T04:50:32.129Z,1776.00
2019-05-25T04:51:32.035Z,1712.00
2019-05-25T04:52:31.960Z,1716.00
2019-05-25T04:53:31.872Z,1708.00
2019-05-25T04:54:31.797Z,1652.00
2019-05-25T04:55:31.711Z,1620.00
2019-05-25T04:56:39.687Z,1592.00
2019-05-25T04:57:31.561Z,1584.00
2019-05-25T04:58:31.472Z,1556.00
2019-05-25T04:59:31.400Z,1584.00
2019-05-25T05:00:31.324Z,1612.00
2019-05-25T05:01:31.236Z,1688.00
2019-05-25T05:02:31.149Z,1868.00
2019-05-25T05:03:31.074Z,1836.00
2019-05-25T05:04:31.050Z,1860.00
2019-05-25T05:05:30.914Z,1796.00
2019-05-25T05:06:30.842Z,1784.00
2019-05-25T05:07:30.748Z,1748.00
2019-05-25T05:08:30.699Z,1692.00
2019-05-25T05:09:30.587Z,1740.00
2019-05-25T05:10:30.512Z,1700.00
2019-05-25T05:11:30.425Z,1732.00
2019-05-25T05:12:30.349Z,1656.00
2019-05-25T05:13:30.274Z,1656.00
2019-05-25T05:14:30.189Z,1640.00
2019-05-25T05:15:30.112Z,1772.00
2019-05-25T05:16:30.025Z,1896.00
2019-05-25T05:17:29.949Z,1908.00
2019-05-25T05:18:29.862Z,1908.00
2019-05-25T05:19:29.789Z,1900.00
2019-05-25T05:20:29.703Z,1948.00
2019-05-25T05:21:29.638Z,1936.00
2019-05-25T05:22:29.550Z,1932.00
2019-05-25T05:23:29.464Z,1944.00
2019-05-25T05:24:29.388Z,1992.00
2019-05-25T05:25:29.300Z,2088.00
2019-05-25T05:26:29.228Z,2012.00
2019-05-25T05:27:29.138Z,1996.00
2019-05-25T05:28:29.064Z,1996.00
2019-05-25T05:29:28.978Z,1976.00
2019-05-25T05:30:28.901Z,1988.00
2019-05-25T05:31:28.825Z,1968.00
2019-05-25T05:32:28.739Z,1896.00
2019-05-25T05:33:28.667Z,1888.00
2019-05-25T05:34:28.590Z,1920.00
2019-05-25T05:35:28.502Z,2020.00
2019-05-25T05:36:28.420Z,2008.00
2019-05-25T05:37:28.344Z,2028.00
2019-05-25T05:38:28.254Z,2024.00
2019-05-25T05:39:28.177Z,2216.00
2019-05-25T05:40:28.106Z,2512.00
2019-05-25T05:41:31.036Z,2940.00
2019-05-25T05:42:27.940Z,3508.00
2019-05-25T05:43:27.858Z,3324.00
2019-05-25T05:44:27.778Z,2540.00
2019-05-25T05:45:27.691Z,2488.00
2019-05-25T05:46:27.616Z,2448.00
2019-05-25T05:47:27.528Z,2308.00
2019-05-25T05:48:27.453Z,2536.00
2019-05-25T05:49:27.378Z,2264.00
2019-05-25T05:50:27.291Z,2224.00
2019-05-25T05:51:27.216Z,2440.00
2019-05-25T05:52:27.198Z,2772.00
2019-05-25T05:53:27.059Z,2376.00
2019-05-25T05:54:26.978Z,2332.00
2019-05-25T05:55:26.892Z,2360.00
2019-05-25T05:56:26.817Z,2304.00
2019-05-25T05:57:26.728Z,2384.00
2019-05-25T05:58:26.653Z,2328.00
2019-05-25T05:59:26.569Z,2300.00
2019-05-25T06:00:26.493Z,2416.00
2019-05-25T06:01:26.420Z,2376.00
2019-05-25T06:02:26.328Z,2336.00
2019-05-25T06:03:26.254Z,2392.00
2019-05-25T06:04:26.168Z,2412.00
2019-05-25T06:05:26.092Z,2284.00
2019-05-25T06:06:26.006Z,3032.00
2019-05-25T06:07:27.529Z,2752.00
2019-05-25T06:08:25.856Z,3724.00
2019-05-25T06:09:25.771Z,3116.00
2019-05-25T06:10:25.698Z,2720.00
2019-05-25T06:11:25.622Z,3492.00
2019-05-25T06:12:25.529Z,3052.00
2019-05-25T06:13:25.456Z,3396.00
2019-05-25T06:14:25.382Z,5564.00
2019-05-25T06:15:25.294Z,5988.00
2019-05-25T06:16:25.218Z,3368.00
2019-05-25T06:17:25.130Z,5508.00
2019-05-25T06:18:25.057Z,5712.00
2019-05-25T06:19:24.975Z,3708.00
2019-05-25T06:20:24.894Z,4508.00
2019-05-25T06:21:24.806Z,6168.00
2019-05-25T06:22:24.731Z,8580.00
2019-05-25T06:23:24.645Z,9232.00
2019-05-25T06:24:24.569Z,8220.00
2019-05-25T06:25:24.503Z,7040.00
2019-05-25T06:26:24.407Z,8224.00
2019-05-25T06:27:27.545Z,8764.00
2019-05-25T06:28:24.259Z,9476.00
2019-05-25T06:29:24.170Z,9616.00
2019-05-25T06:30:24.097Z,8688.00
2019-05-25T06:31:24.007Z,5092.00
2019-05-25T06:32:23.932Z,3704.00
2019-05-25T06:33:23.858Z,3712.00
2019-05-25T06:34:23.775Z,6480.00
2019-05-25T06:35:23.696Z,8860.00
2019-05-25T06:36:23.620Z,10428.00
2019-05-25T06:37:23.533Z,12452.00
2019-05-25T06:38:23.462Z,10792.00
2019-05-25T06:39:23.396Z,9272.00
2019-05-25T06:40:23.296Z,9340.00
2019-05-25T06:41:23.223Z,10520.00
2019-05-25T06:42:23.146Z,9956.00
2019-05-25T06:43:23.058Z,10540.00
2019-05-25T06:44:22.984Z,10432.00
2019-05-25T06:45:22.908Z,9424.00
2019-05-25T06:46:22.821Z,10812.00
2019-05-25T06:47:22.746Z,11276.00
2019-05-25T06:48:22.672Z,10292.00
2019-05-25T06:49:22.584Z,8312.00
2019-05-25T06:50:22.510Z,8076.00
2019-05-25T06:51:22.435Z,8268.00
2019-05-25T06:52:22.347Z,7084.00
2019-05-25T06:53:22.271Z,9024.00
2019-05-25T06:54:22.197Z,10816.00
2019-05-25T06:55:22.110Z,10304.00
2019-05-25T06:56:22.034Z,11972.00
2019-05-25T06:57:21.960Z,10644.00
2019-05-25T06:58:21.885Z,10604.00
2019-05-25T06:59:21.797Z,10352.00
2019-05-25T07:00:21.724Z,8968.00
2019-05-25T07:01:21.648Z,7764.00
2019-05-25T07:02:22.695Z,8396.00
2019-05-25T07:03:21.485Z,8552.00
2019-05-25T07:04:21.410Z,9384.00
2019-05-25T07:05:21.326Z,11140.00
2019-05-25T07:06:21.249Z,8008.00
2019-05-25T07:07:21.176Z,9400.00
2019-05-25T07:08:21.098Z,10736.00
2019-05-25T07:09:21.011Z,9468.00
2019-05-25T07:10:20.936Z,8956.00
2019-05-25T07:11:20.873Z,10616.00
2019-05-25T07:12:20.774Z,11860.00
2019-05-25T07:13:20.699Z,10088.00
2019-05-25T07:14:20.624Z,9692.00
2019-05-25T07:15:20.550Z,9484.00
2019-05-25T07:16:20.478Z,9016.00
2019-05-25T07:17:20.389Z,7556.00
2019-05-25T07:18:20.319Z,7292.00
2019-05-25T07:19:20.236Z,11032.00
2019-05-25T07:20:20.157Z,9660.00
2019-05-25T07:21:20.075Z,7228.00
2019-05-25T07:22:19.988Z,8568.00
2019-05-25T07:23:19.919Z,12948.00
2019-05-25T07:24:19.837Z,14660.00
2019-05-25T07:25:20.239Z,14728.00
2019-05-25T07:26:19.676Z,19776.00
2019-05-25T07:27:19.601Z,13652.00
2019-05-25T07:28:19.528Z,12460.00
2019-05-25T07:29:19.438Z,10248.00
2019-05-25T07:30:19.363Z,8888.00
2019-05-25T07:31:19.287Z,8736.00
2019-05-25T07:32:19.228Z,10376.00
2019-05-25T07:33:19.126Z,9928.00
2019-05-25T07:34:19.052Z,10348.00
2019-05-25T07:35:18.976Z,10996.00
2019-05-25T07:36:18.888Z,10516.00
2019-05-25T07:37:18.814Z,9620.00
2019-05-25T07:38:18.738Z,9748.00
2019-05-25T07:39:18.664Z,14012.00
2019-05-25T07:40:18.581Z,15320.00
2019-05-25T07:41:18.502Z,28608.00
2019-05-25T07:42:20.060Z,15080.00
2019-05-25T07:43:18.339Z,15212.00
2019-05-25T07:44:18.264Z,12028.00
2019-05-25T07:45:18.189Z,12176.00
2019-05-25T07:46:18.114Z,13908.00
2019-05-25T07:47:18.031Z,13184.00
2019-05-25T07:48:17.954Z,11452.00
2019-05-25T07:49:17.879Z,12272.00
2019-05-25T07:50:17.806Z,10240.00
2019-05-25T07:51:17.716Z,9608.00
2019-05-25T07:52:17.642Z,8092.00
2019-05-25T07:53:17.566Z,10856.00
2019-05-25T07:54:17.493Z,10504.00
2019-05-25T07:55:17.405Z,9636.00
2019-05-25T07:56:17.328Z,9068.00
2019-05-25T07:57:17.258Z,8964.00
2019-05-25T07:58:18.541Z,8544.00
2019-05-25T07:59:17.090Z,8504.00
2019-05-25T08:00:17.016Z,10864.00
2019-05-25T08:01:16.954Z,8996.00
2019-05-25T08:02:16.867Z,8616.00
2019-05-25T08:03:16.779Z,9572.00
2019-05-25T08:04:16.705Z,10784.00
2019-05-25T08:05:16.629Z,9924.00
2019-05-25T08:06:16.544Z,7780.00
2019-05-25T08:07:16.467Z,10112.00
2019-05-25T08:08:16.391Z,13276.00
2019-05-25T08:09:16.317Z,10440.00
2019-05-25T08:10:16.262Z,8824.00
2019-05-25T08:11:16.158Z,8468.00
2019-05-25T08:12:16.080Z,7084.00
2019-05-25T08:13:16.005Z,6260.00
2019-05-25T08:14:15.921Z,5544.00
2019-05-25T08:15:15.844Z,5764.00
2019-05-25T08:16:15.769Z,6084.00
2019-05-25T08:17:15.711Z,5996.00
2019-05-25T08:18:15.606Z,5792.00
2019-05-25T08:19:15.535Z,5664.00
2019-05-25T08:20:15.457Z,6428.00
2019-05-25T08:21:15.384Z,8600.00
2019-05-25T08:22:15.307Z,8668.00
2019-05-25T08:23:15.219Z,9820.00
2019-05-25T08:24:15.143Z,11196.00
2019-05-25T08:25:15.070Z,9440.00
2019-05-25T08:26:14.983Z,8256.00
2019-05-25T08:27:14.907Z,8688.00
2019-05-25T08:28:14.832Z,7888.00
2019-05-25T08:29:14.746Z,7240.00
2019-05-25T08:30:14.669Z,8452.00
2019-05-25T08:31:14.594Z,8644.00
2019-05-25T08:32:14.531Z,10884.00
2019-05-25T08:33:14.433Z,14432.00
2019-05-25T08:34:14.358Z,15072.00
2019-05-25T08:35:14.286Z,13620.00
2019-05-25T08:36:14.195Z,11288.00
2019-05-25T08:37:14.181Z,10776.00
2019-05-25T08:38:14.045Z,9756.00
2019-05-25T08:39:13.970Z,9384.00
2019-05-25T08:40:13.883Z,11612.00
2019-05-25T08:41:13.808Z,10320.00
2019-05-25T08:42:13.733Z,7868.00
2019-05-25T08:43:13.645Z,6384.00
2019-05-25T08:44:13.570Z,7056.00
2019-05-25T08:45:13.496Z,7012.00
2019-05-25T08:46:13.421Z,5952.00
2019-05-25T08:47:13.334Z,5960.00
2019-05-25T08:48:13.260Z,5772.00
2019-05-25T08:49:13.184Z,5704.00
2019-05-25T08:50:13.097Z,5660.00
2019-05-25T08:51:13.021Z,5132.00
2019-05-25T08:52:12.947Z,5536.00
2019-05-25T08:53:12.884Z,5836.00
2019-05-25T08:54:12.784Z,5620.00
2019-05-25T08:55:12.711Z,5696.00
2019-05-25T08:56:12.635Z,5916.00
2019-05-25T08:57:16.124Z,5432.00
2019-05-25T08:58:12.472Z,6048.00
2019-05-25T08:59:12.398Z,9316.00
2019-05-25T09:00:12.323Z,11716.00
2019-05-25T09:01:12.237Z,15080.00
2019-05-25T09:02:12.160Z,16816.00
2019-05-25T09:03:12.075Z,18752.00
2019-05-25T09:04:12.065Z,19456.00
2019-05-25T09:05:11.923Z,18304.00
2019-05-25T09:06:11.847Z,18432.00
2019-05-25T09:07:11.764Z,18496.00
2019-05-25T09:08:11.686Z,18400.00
2019-05-25T09:09:11.611Z,16160.00
2019-05-25T09:10:11.523Z,15328.00
2019-05-25T09:11:11.448Z,14528.00
2019-05-25T09:12:11.373Z,13076.00
2019-05-25T09:13:11.354Z,12576.00
2019-05-25T09:14:11.212Z,11280.00
2019-05-25T09:15:11.137Z,9776.00
2019-05-25T09:16:11.062Z,8140.00
2019-05-25T09:17:10.994Z,7248.00
2019-05-25T09:18:10.910Z,6400.00
2019-05-25T09:19:10.824Z,5708.00
2019-05-25T09:20:10.769Z,5572.00
2019-05-25T09:21:10.680Z,5980.00
2019-05-25T09:22:10.593Z,6448.00
2019-05-25T09:23:10.514Z,7000.00
2019-05-25T09:24:10.438Z,7296.00
2019-05-25T09:25:10.366Z,6440.00
2019-05-25T09:26:13.225Z,6216.00
2019-05-25T09:27:10.199Z,6112.00
2019-05-25T09:28:10.127Z,5752.00
2019-05-25T09:29:10.051Z,7084.00
2019-05-25T09:30:09.963Z,8484.00
2019-05-25T09:31:09.890Z,8784.00
2019-05-25T09:32:09.814Z,13644.00
2019-05-25T09:33:09.740Z,18400.00
2019-05-25T09:34:09.653Z,19968.00
2019-05-25T09:35:09.589Z,18304.00
2019-05-25T09:36:09.501Z,17888.00
2019-05-25T09:37:09.427Z,17408.00
2019-05-25T09:38:09.355Z,15660.00
2019-05-25T09:39:09.265Z,13520.00
2019-05-25T09:40:09.189Z,10736.00
2019-05-25T09:41:09.103Z,9128.00
2019-05-25T09:42:09.027Z,8372.00
2019-05-25T09:43:08.953Z,7692.00
2019-05-25T09:44:08.889Z,8008.00
2019-05-25T09:45:08.814Z,8312.00
2019-05-25T09:46:08.717Z,8892.00
2019-05-25T09:47:08.641Z,10508.00
2019-05-25T09:48:08.565Z,11264.00
2019-05-25T09:49:08.491Z,10768.00
2019-05-25T09:50:08.405Z,10468.00
2019-05-25T09:51:15.521Z,10036.00
2019-05-25T09:52:08.252Z,8928.00
2019-05-25T09:53:08.178Z,8960.00
2019-05-25T09:54:08.090Z,9192.00
2019-05-25T09:55:08.016Z,9612.00
2019-05-25T09:56:07.940Z,10932.00
2019-05-25T09:57:07.869Z,11448.00
2019-05-25T09:58:07.778Z,11256.00
2019-05-25T09:59:19.280Z,11452.00
2019-05-25T10:00:07.629Z,10604.00
2019-05-25T10:01:07.553Z,9920.00
2019-05-25T10:02:07.472Z,11964.00
2019-05-25T10:03:07.392Z,11292.00
2019-05-25T10:04:07.317Z,10500.00
2019-05-25T10:05:07.241Z,9212.00
2019-05-25T10:06:11.839Z,9900.00
2019-05-25T10:07:07.079Z,10732.00
2019-05-25T10:08:07.004Z,10588.00
2019-05-25T10:09:06.930Z,11596.00
2019-05-25T10:10:06.842Z,11584.00
2019-05-25T10:11:06.768Z,11464.00
2019-05-25T10:12:06.693Z,11884.00
2019-05-25T10:13:06.618Z,11120.00
2019-05-25T10:14:06.534Z,11292.00
2019-05-25T10:15:06.454Z,11980.00
2019-05-25T10:16:06.384Z,12136.00
2019-05-25T10:17:06.305Z,11164.00
2019-05-25T10:18:06.219Z,10260.00
2019-05-25T10:19:06.143Z,10836.00
2019-05-25T10:20:06.069Z,12124.00
2019-05-25T10:21:05.995Z,12552.00
2019-05-25T10:22:05.915Z,15184.00
2019-05-25T10:23:05.831Z,17984.00
2019-05-25T10:24:05.768Z,16844.00
2019-05-25T10:25:05.681Z,14168.00
2019-05-25T10:26:05.608Z,12792.00
2019-05-25T10:27:05.520Z,13220.00
2019-05-25T10:28:05.444Z,11304.00
2019-05-25T10:29:05.369Z,9272.00
2019-05-25T10:30:05.296Z,9452.00
2019-05-25T10:31:05.233Z,9464.00
2019-05-25T10:32:05.131Z,8548.00
2019-05-25T10:33:05.056Z,8288.00
2019-05-25T10:34:04.987Z,8092.00
2019-05-25T10:35:04.908Z,9024.00
2019-05-25T10:36:04.824Z,11300.00
2019-05-25T10:37:04.746Z,12964.00
2019-05-25T10:38:04.672Z,14348.00
2019-05-25T10:39:04.596Z,15092.00
2019-05-25T10:40:04.521Z,12028.00
2019-05-25T10:41:04.432Z,10048.00
2019-05-25T10:42:04.361Z,12224.00
2019-05-25T10:43:04.282Z,13656.00
2019-05-25T10:44:04.220Z,15412.00
2019-05-25T10:45:04.268Z,14148.00
2019-05-25T10:46:04.046Z,10748.00
2019-05-25T10:47:03.972Z,9108.00
2019-05-25T10:48:03.896Z,9544.00
2019-05-25T10:49:03.823Z,8080.00
2019-05-25T10:50:03.736Z,8080.00
2019-05-25T10:51:03.658Z,11344.00
2019-05-25T10:52:03.584Z,12160.00
2019-05-25T10:53:03.593Z,13604.00
2019-05-25T10:54:03.448Z,17408.00
2019-05-25T10:55:03.347Z,16256.00
2019-05-25T10:56:03.326Z,12636.00
2019-05-25T10:57:03.199Z,12216.00
2019-05-25T10:58:03.134Z,13916.00
2019-05-25T10:59:03.037Z,13212.00
2019-05-25T11:00:02.960Z,12380.00
2019-05-25T11:01:02.886Z,14476.00
2019-05-25T11:02:02.810Z,15104.00
2019-05-25T11:03:02.734Z,13368.00
2019-05-25T11:04:02.647Z,11464.00
2019-05-25T11:05:02.601Z,10644.00
2019-05-25T11:06:02.498Z,14476.00
2019-05-25T11:07:02.424Z,19200.00
2019-05-25T11:08:02.337Z,18176.00
2019-05-25T11:09:02.261Z,16288.00
2019-05-25T11:10:02.189Z,14988.00
2019-05-25T11:11:02.111Z,15788.00
2019-05-25T11:12:02.052Z,13924.00
2019-05-25T11:13:01.960Z,13024.00
2019-05-25T11:14:01.874Z,14684.00
2019-05-25T11:15:01.804Z,14792.00
2019-05-25T11:16:01.726Z,15004.00
2019-05-25T11:17:01.703Z,15432.00
2019-05-25T11:18:01.563Z,13872.00
2019-05-25T11:19:01.487Z,14184.00
2019-05-25T11:20:01.429Z,15040.00
2019-05-25T11:21:01.343Z,14988.00
2019-05-25T11:22:01.274Z,15548.00
2019-05-25T11:23:01.198Z,16748.00
2019-05-25T11:24:01.101Z,17568.00
2019-05-25T11:25:01.025Z,19200.00
2019-05-25T11:26:00.953Z,20992.00
2019-05-25T11:27:00.875Z,19616.00
2019-05-25T11:28:00.802Z,18656.00
2019-05-25T11:29:00.725Z,18624.00
2019-05-25T11:30:09.175Z,21184.00
2019-05-25T11:31:00.562Z,23264.00
2019-05-25T11:32:04.456Z,25600.00
2019-05-25T11:33:00.414Z,24960.00
2019-05-25T11:34:00.337Z,23904.00
2019-05-25T11:35:00.254Z,22400.00
2019-05-25T11:36:00.176Z,22464.00
2019-05-25T11:37:00.102Z,23008.00
2019-05-25T11:38:00.026Z,21504.00
2019-05-25T11:38:59.951Z,20416.00
2019-05-25T11:39:59.879Z,19744.00
2019-05-25T11:40:59.808Z,18752.00
2019-05-25T11:41:59.728Z,17888.00
2019-05-25T11:42:59.651Z,19424.00
2019-05-25T11:43:59.577Z,21344.00
2019-05-25T11:44:59.489Z,17952.00
2019-05-25T11:45:59.417Z,19904.00
2019-05-25T11:46:59.342Z,20256.00
2019-05-25T11:47:59.266Z,24512.00
2019-05-25T11:48:59.191Z,22176.00
2019-05-25T11:49:59.114Z,25728.00
2019-05-25T11:50:59.045Z,25184.00
2019-05-25T11:51:59.023Z,19264.00
2019-05-25T11:52:58.894Z,19840.00
2019-05-25T11:53:58.817Z,19040.00
2019-05-25T11:54:58.730Z,16216.00
2019-05-25T11:55:58.657Z,15188.00
2019-05-25T11:56:58.579Z,14320.00
2019-05-25T11:57:58.504Z,14264.00
2019-05-25T11:58:58.429Z,15020.00
2019-05-25T11:59:58.356Z,13520.00
2019-05-25T12:00:58.281Z,13068.00
2019-05-25T12:01:58.203Z,13724.00
2019-05-25T12:02:58.133Z,21568.00
2019-05-25T12:03:58.055Z,12144.00
2019-05-25T12:04:57.983Z,12252.00
2019-05-25T12:05:57.903Z,13376.00
2019-05-25T12:06:57.817Z,13044.00
2019-05-25T12:07:57.742Z,13940.00
2019-05-25T12:08:57.666Z,13640.00
2019-05-25T12:09:57.592Z,11592.00
2019-05-25T12:10:57.517Z,9436.00
2019-05-25T12:11:57.441Z,8096.00
2019-05-25T12:12:57.379Z,7768.00
2019-05-25T12:13:57.365Z,8736.00
2019-05-25T12:14:57.223Z,9704.00
2019-05-25T12:15:57.132Z,9872.00